Terminal Aerodrome Forecast
Issued by NWS Salt Lake City, UT

Home | Current Version | Previous Version | Text Only | Print | Product List | Glossary On
Versions: 1 2 3 4 5 6 7 8 9 10 11 12 13 14 15 16 17 18 19 20 21 22 23 24 25 26 27 28 29 30 31 32 33 34 35 36 37 38 39 40 41 42 43 44 45 46 47 48 49 50
000
FTUS45 KSLC 100601 AAB
TAFSLC
TAF AMD
KSLC 100601Z 1006/1112 15009KT P6SM SCT120 BKN200
     FM101500 17013G20KT P6SM SCT150
     FM101900 31007KT P6SM VCSH SCT070 BKN100
     FM110300 15006KT P6SM SCT070 BKN120=

USA.gov is the U.S. government's official web portal to all federal, state and local government web resources and services.